Time;durP1;ratioP1;P1;durP2;ratioP2;P2;SDS_P1;SDS_P2;PMS_P1;PMS_P2;Temp;Humidity;BMP_temperature;BMP_pressure;BME280_temperature;BME280_humidity;BME280_pressure;Samples;Min_cycle;Max_cycle;Signal;HPM_P1;HPM_P2
2022/03/28 04:08:56;;;;;;;;;;;;;;;10.32;43.42;97753.66;4217537;27;10390;-63
2022/03/28 04:10:58;;;;;;;;;;;;;;;10.33;43.31;97750.00;4192400;28;5728;-63
2022/03/28 04:12:59;;;;;;;;;;;;;;;10.37;43.30;97761.06;4195656;28;5715;-63
2022/03/28 04:15:01;;;;;;;;;;;;;;;10.37;43.14;97758.41;4197504;28;5739;-64
2022/03/28 04:17:03;;;;;;;;;;;;;;;10.41;42.74;97759.72;4188891;28;5782;-63
2022/03/28 04:19:05;;;;;;;;;;;;;;;10.41;43.19;97757.91;4197478;28;5809;-63
2022/03/28 04:21:07;;;;;;;;;;;;;;;10.40;43.10;97755.44;4197300;28;5711;-63
2022/03/28 04:23:08;;;;;;;;;;;;;;;10.38;43.25;97754.78;4195052;28;5734;-63
2022/03/28 04:25:10;;;;;;;;;;;;;;;10.38;43.37;97758.25;4200090;28;5715;-64
2022/03/28 04:27:12;;;;;;;;;;;;;;;10.41;43.29;97762.38;4196059;28;5742;-63
2022/03/28 04:29:14;;;;;;;;;;;;;;;10.45;43.33;97753.94;4196759;28;5805;-62
2022/03/28 04:31:16;;;;;;;;;;;;;;;10.44;43.24;97751.47;4196489;28;5708;-62
2022/03/28 04:33:19;;;;;;;;;;;;;;;10.44;43.15;97760.22;4195007;28;5703;-62
2022/03/28 04:35:20;;;;;;;;;;;;;;;10.41;43.36;97757.06;4196073;28;5722;-62
2022/03/28 04:37:22;;;;;;;;;;;;;;;10.41;43.50;97752.63;4196355;28;5796;-62
2022/03/28 04:39:23;;;;;;;;;;;;;;;10.45;43.24;97753.13;4197023;28;6002;-62
2022/03/28 04:41:25;;;;;;;;;;;;;;;10.48;42.99;97756.25;4199496;28;5936;-62
2022/03/28 04:43:27;;;;;;;;;;;;;;;10.51;42.92;97757.72;4195550;28;5772;-62
2022/03/28 04:45:30;;;;;;;;;;;;;;;10.53;42.72;97757.53;4196996;28;5730;-63
2022/03/28 04:47:33;;;;;;;;;;;;;;;10.53;42.45;97762.84;4191121;28;6567;-63
2022/03/28 04:49:34;;;;;;;;;;;;;;;10.49;42.61;97760.53;4188055;28;5794;-63
2022/03/28 04:51:36;;;;;;;;;;;;;;;10.46;42.60;97755.59;4193434;28;5746;-63
2022/03/28 04:53:37;;;;;;;;;;;;;;;10.43;43.18;97760.41;4196732;28;5735;-63
2022/03/28 04:55:39;;;;;;;;;;;;;;;10.39;43.56;97756.44;4194184;28;5731;-63
2022/03/28 04:57:41;;;;;;;;;;;;;;;10.37;43.39;97753.94;4186755;28;5904;-63
2022/03/28 04:59:42;;;;;;;;;;;;;;;10.37;43.29;97767.16;4191780;28;5804;-63
2022/03/28 05:01:44;;;;;;;;;;;;;;;10.41;42.83;97759.72;4189061;28;6088;-63
2022/03/28 05:03:46;;;;;;;;;;;;;;;10.38;43.29;97763.53;4192820;28;5971;-63
2022/03/28 05:05:48;;;;;;;;;;;;;;;10.31;43.71;97767.84;4191810;28;5719;-63
2022/03/28 05:07:49;;;;;;;;;;;;;;;10.35;43.56;97768.34;4193551;28;5785;-62
2022/03/28 05:09:53;;;;;;;;;;;;;;;10.31;43.61;97770.50;4186366;28;5182;-63
2022/03/28 05:11:54;;;;;;;;;;;;;;;10.31;43.81;97765.22;4173691;28;5907;-63
2022/03/28 05:13:58;;;;;;;;;;;;;;;10.33;43.72;97765.88;4184815;28;5814;-62
2022/03/28 05:16:04;;;;;;;;;;;;;;;10.30;43.89;97760.06;4179321;28;6590;-62
2022/03/28 05:18:06;;;;;;;;;;;;;;;10.30;43.70;97768.81;4181432;28;5857;-62
2022/03/28 05:20:09;;;;;;;;;;;;;;;10.30;43.69;97763.53;4182686;28;5832;-62
2022/03/28 05:22:11;;;;;;;;;;;;;;;10.26;44.04;97759.59;4184614;28;6399;-63
2022/03/28 05:24:13;;;;;;;;;;;;;;;10.30;44.09;97763.53;4183392;28;5766;-63
2022/03/28 05:26:14;;;;;;;;;;;;;;;10.33;44.05;97767.69;4181022;28;5912;-62
2022/03/28 05:28:16;;;;;;;;;;;;;;;10.39;43.89;97780.22;4182054;28;6062;-62
2022/03/28 05:30:18;;;;;;;;;;;;;;;10.38;43.77;97762.72;4182066;28;5746;-62
2022/03/28 05:32:20;;;;;;;;;;;;;;;10.35;44.05;97779.72;4184896;28;5779;-62
2022/03/28 05:34:21;;;;;;;;;;;;;;;10.26;44.46;97778.09;4184606;28;5756;-62
2022/03/28 05:36:25;;;;;;;;;;;;;;;10.25;44.29;97770.34;4178584;28;5848;-62
2022/03/28 05:38:26;;;;;;;;;;;;;;;10.25;44.61;97778.25;4183601;28;5719;-62
2022/03/28 05:40:28;;;;;;;;;;;;;;;10.33;44.44;97779.09;4181777;28;5820;-60
2022/03/28 05:42:30;;;;;;;;;;;;;;;10.34;44.67;97783.38;4174970;28;5819;-61
2022/03/28 05:44:32;;;;;;;;;;;;;;;10.29;44.58;97780.38;4194806;28;5697;-61
2022/03/28 05:46:33;;;;;;;;;;;;;;;10.17;45.66;97782.50;4176014;28;5863;-62
2022/03/28 05:48:35;;;;;;;;;;;;;;;10.18;45.67;97775.41;4183588;28;6193;-61
2022/03/28 05:50:37;;;;;;;;;;;;;;;10.19;45.19;97777.91;4183824;28;5730;-61
2022/03/28 05:52:38;;;;;;;;;;;;;;;10.24;45.17;97782.72;4184695;28;5747;-62
2022/03/28 05:54:40;;;;;;;;;;;;;;;10.28;45.12;97786.66;4184914;28;5722;-62
2022/03/28 05:56:42;;;;;;;;;;;;;;;10.28;45.56;97778.75;4176301;28;5836;-61
2022/03/28 05:58:44;;;;;;;;;;;;;;;10.31;45.61;97788.19;4176464;28;5866;-61
2022/03/28 06:00:45;;;;;;;;;;;;;;;10.31;46.23;97788.19;4180919;28;5392;-61
2022/03/28 06:02:47;;;;;;;;;;;;;;;10.26;46.63;97791.31;4181168;28;7767;-63
2022/03/28 06:04:49;;;;;;;;;;;;;;;10.30;46.43;97789.97;4175524;28;5726;-62
2022/03/28 06:06:51;;;;;;;;;;;;;;;10.29;46.72;97792.78;4175108;28;5753;-63
2022/03/28 06:08:53;;;;;;;;;;;;;;;10.29;46.87;97796.25;4177548;28;6510;-63
2022/03/28 06:10:55;;;;;;;;;;;;;;;10.21;47.12;97798.88;4183659;28;5727;-63
2022/03/28 06:12:57;;;;;;;;;;;;;;;10.06;48.39;97796.06;4183274;28;5739;-63
2022/03/28 06:14:59;;;;;;;;;;;;;;;10.16;47.48;97796.72;4183462;28;5728;-63
2022/03/28 06:17:02;;;;;;;;;;;;;;;10.20;48.10;97792.78;4183952;28;5740;-64
2022/03/28 06:19:04;;;;;;;;;;;;;;;10.20;47.48;97786.66;4183289;28;5758;-64
2022/03/28 06:21:07;;;;;;;;;;;;;;;10.03;48.53;97793.75;4182171;28;5922;-64
2022/03/28 06:23:12;;;;;;;;;;;;;;;9.96;48.43;97794.56;4183626;28;5742;-65
2022/03/28 06:25:13;;;;;;;;;;;;;;;9.95;48.40;97793.75;4184351;28;6552;-63
2022/03/28 06:27:37;;;;;;;;;;;;;;;9.78;48.78;97792.94;4173111;28;5736;-63
2022/03/28 06:29:39;;;;;;;;;;;;;;;9.63;49.31;97797.22;4182738;28;6375;-63
2022/03/28 06:31:42;;;;;;;;;;;;;;;9.78;49.10;97797.38;4184450;28;5883;-63
2022/03/28 06:33:48;;;;;;;;;;;;;;;9.70;50.16;97805.28;4168231;28;5735;-63
2022/03/28 06:35:52;;;;;;;;;;;;;;;9.87;51.16;97806.97;4166458;28;5740;-63
2022/03/28 06:37:55;;;;;;;;;;;;;;;10.04;50.02;97808.63;4181276;28;5876;-63
2022/03/28 06:39:56;;;;;;;;;;;;;;;9.71;53.24;97813.03;4178500;28;5825;-63
2022/03/28 06:41:58;;;;;;;;;;;;;;;9.73;52.53;97808.41;4182451;28;5723;-64
2022/03/28 06:44:00;;;;;;;;;;;;;;;9.93;51.18;97806.31;4175913;28;5736;-64
2022/03/28 06:46:02;;;;;;;;;;;;;;;10.13;50.47;97809.44;4178760;28;5782;-63
2022/03/28 06:48:04;;;;;;;;;;;;;;;10.19;50.64;97806.13;4182851;28;5857;-64
2022/03/28 06:50:27;;;;;;;;;;;;;;;10.08;51.70;97812.59;4183238;28;5714;-64
2022/03/28 06:52:32;;;;;;;;;;;;;;;10.01;52.00;97813.41;4181839;28;5936;-64
2022/03/28 06:54:34;;;;;;;;;;;;;;;10.03;51.99;97811.44;4183341;28;5701;-64
2022/03/28 06:56:36;;;;;;;;;;;;;;;9.93;53.00;97807.13;4182057;28;5825;-64
2022/03/28 06:58:39;;;;;;;;;;;;;;;10.16;51.72;97811.75;4182193;28;5744;-64
2022/03/28 07:00:40;;;;;;;;;;;;;;;10.22;53.46;97815.59;4182620;28;5711;-63
2022/03/28 07:02:42;;;;;;;;;;;;;;;10.20;53.57;97813.09;4174365;28;5755;-64
2022/03/28 07:04:44;;;;;;;;;;;;;;;10.38;53.49;97803.19;4172373;28;5903;-64
2022/03/28 07:06:46;;;;;;;;;;;;;;;10.42;54.19;97803.69;4179998;28;5719;-65
2022/03/28 07:08:48;;;;;;;;;;;;;;;10.41;52.44;97805.47;4181262;28;5719;-64
2022/03/28 07:10:50;;;;;;;;;;;;;;;10.46;53.01;97803.19;4166097;28;5771;-64
2022/03/28 07:12:53;;;;;;;;;;;;;;;10.58;52.82;97794.91;4170743;28;5794;-64
2022/03/28 07:14:55;;;;;;;;;;;;;;;10.62;53.09;97798.84;4181927;28;5787;-64
2022/03/28 07:16:56;;;;;;;;;;;;;;;10.36;51.91;97799.88;4171461;28;5708;-64
2022/03/28 07:18:59;;;;;;;;;;;;;;;10.43;51.06;97790.31;4182525;28;5722;-64
2022/03/28 07:21:00;;;;;;;;;;;;;;;10.40;52.46;97790.63;4182631;28;5715;-64
2022/03/28 07:23:04;;;;;;;;;;;;;;;10.41;51.94;97784.34;4167369;28;6391;-63
2022/03/28 07:25:07;;;;;;;;;;;;;;;10.36;51.94;97780.56;4167340;28;6407;-64
2022/03/28 07:27:09;;;;;;;;;;;;;;;10.54;51.28;97777.72;4167158;28;5824;-64
2022/03/28 07:29:11;;;;;;;;;;;;;;;10.58;50.88;97779.03;4167176;28;5749;-62
2022/03/28 07:31:13;;;;;;;;;;;;;;;10.46;50.67;97776.75;4167292;28;5744;-64
2022/03/28 07:33:15;;;;;;;;;;;;;;;10.54;50.58;97769.78;4167255;28;5957;-64
2022/03/28 07:35:17;;;;;;;;;;;;;;;10.53;50.79;97771.59;4167098;28;5736;-62
2022/03/28 07:37:19;;;;;;;;;;;;;;;10.60;50.19;97769.94;4167091;28;5902;-63
2022/03/28 07:39:21;;;;;;;;;;;;;;;10.65;50.13;97774.72;4167516;28;5744;-63
2022/03/28 07:41:23;;;;;;;;;;;;;;;10.76;50.45;97774.38;4167175;28;5756;-63
2022/03/28 07:43:25;;;;;;;;;;;;;;;10.55;50.95;97776.72;4167031;28;5796;-63
2022/03/28 07:45:27;;;;;;;;;;;;;;;10.57;50.26;97778.22;4167216;28;5740;-63
2022/03/28 07:47:29;;;;;;;;;;;;;;;10.65;50.61;97780.00;4167267;28;5752;-63
2022/03/28 07:49:31;;;;;;;;;;;;;;;10.76;49.05;97777.84;4166992;28;5749;-64
2022/03/28 07:51:33;;;;;;;;;;;;;;;10.74;49.10;97776.31;4167237;28;5740;-63
2022/03/28 07:53:37;;;;;;;;;;;;;;;10.81;48.56;97782.59;4166982;28;5899;-63
2022/03/28 07:55:39;;;;;;;;;;;;;;;10.85;48.29;97775.13;4167058;28;5729;-63
2022/03/28 07:57:43;;;;;;;;;;;;;;;10.93;47.96;97773.28;4178640;28;5743;-63
2022/03/28 07:59:46;;;;;;;;;;;;;;;10.88;49.27;97773.00;4183257;28;6019;-63
2022/03/28 08:02:09;;;;;;;;;;;;;;;11.04;49.30;97775.56;4166914;28;5731;-63
2022/03/28 08:04:11;;;;;;;;;;;;;;;11.09;49.54;97764.44;4183401;28;5723;-63
2022/03/28 08:06:13;;;;;;;;;;;;;;;11.02;49.98;97760.88;4183372;28;6423;-63
2022/03/28 08:08:14;;;;;;;;;;;;;;;10.91;49.61;97759.41;4182826;28;5809;-63
2022/03/28 08:10:16;;;;;;;;;;;;;;;10.99;49.69;97762.03;4182937;28;6851;-63
2022/03/28 08:12:18;;;;;;;;;;;;;;;11.12;48.77;97761.47;4183500;28;5796;-63
2022/03/28 08:14:20;;;;;;;;;;;;;;;11.05;47.82;97763.97;4183156;28;5735;-63
2022/03/28 08:16:21;;;;;;;;;;;;;;;11.00;46.49;97758.41;4183243;28;5707;-63
2022/03/28 08:18:24;;;;;;;;;;;;;;;10.89;47.20;97750.84;4183212;28;5770;-64
2022/03/28 08:20:26;;;;;;;;;;;;;;;10.78;47.00;97759.16;4183050;28;6613;-63
2022/03/28 08:22:28;;;;;;;;;;;;;;;11.02;47.10;97752.94;4183716;28;6354;-63
2022/03/28 08:24:29;;;;;;;;;;;;;;;11.14;47.07;97754.19;4181841;28;5823;-63
2022/03/28 08:26:31;;;;;;;;;;;;;;;11.30;46.78;97753.25;4174815;28;5750;-63
2022/03/28 08:28:33;;;;;;;;;;;;;;;11.35;44.97;97750.94;4183060;28;5711;-63
2022/03/28 08:30:38;;;;;;;;;;;;;;;11.24;44.64;97746.03;4182975;28;5852;-63
2022/03/28 08:32:41;;;;;;;;;;;;;;;11.22;45.81;97743.56;4183268;28;5735;-63
2022/03/28 08:34:46;;;;;;;;;;;;;;;11.19;45.67;97748.38;4181555;28;5711;-63
2022/03/28 08:36:48;;;;;;;;;;;;;;;11.08;45.85;97745.09;4183223;28;5746;-63
2022/03/28 08:38:50;;;;;;;;;;;;;;;11.21;46.46;97743.72;4182984;28;5727;-63
2022/03/28 08:40:52;;;;;;;;;;;;;;;11.37;46.32;97743.63;4182462;28;5708;-63
2022/03/28 08:42:54;;;;;;;;;;;;;;;11.28;45.92;97742.84;4170190;28;5835;-63
2022/03/28 08:44:55;;;;;;;;;;;;;;;11.33;46.16;97737.88;4170563;28;5875;-63
2022/03/28 08:46:59;;;;;;;;;;;;;;;11.31;45.94;97739.03;4186184;28;5726;-63
2022/03/28 08:49:00;;;;;;;;;;;;;;;11.50;46.18;97743.06;4185923;28;5703;-63
2022/03/28 08:51:02;;;;;;;;;;;;;;;11.55;46.58;97746.84;4186174;28;5704;-63
2022/03/28 08:53:05;;;;;;;;;;;;;;;11.44;46.36;97743.75;4181451;28;5895;-62
2022/03/28 08:55:12;;;;;;;;;;;;;;;11.57;46.60;97742.19;4169703;28;5737;-63
2022/03/28 08:57:15;;;;;;;;;;;;;;;11.54;46.45;97739.88;4169584;28;5800;-62
2022/03/28 08:59:17;;;;;;;;;;;;;;;11.58;46.72;97746.50;4184717;28;5722;-63
2022/03/28 09:01:20;;;;;;;;;;;;;;;11.66;46.72;97746.44;4185387;28;5850;-63
2022/03/28 09:03:47;;;;;;;;;;;;;;;11.52;47.03;97746.34;4183055;28;5812;-63
2022/03/28 09:05:50;;;;;;;;;;;;;;;11.57;46.90;97749.31;4169504;28;5759;-63
2022/03/28 09:07:52;;;;;;;;;;;;;;;11.71;47.14;97742.41;4171340;28;5734;-63
2022/03/28 09:09:59;;;;;;;;;;;;;;;11.80;47.60;97738.75;4185226;28;5786;-63
2022/03/28 09:12:12;;;;;;;;;;;;;;;11.66;50.17;97730.53;4169603;28;5739;-64
2022/03/28 09:14:25;;;;;;;;;;;;;;;11.83;49.04;97728.59;4182655;28;5818;-64
2022/03/28 09:16:31;;;;;;;;;;;;;;;11.81;49.38;97729.78;4185561;28;5781;-65
2022/03/28 09:18:35;;;;;;;;;;;;;;;11.90;50.29;97728.72;4185351;28;5802;-63
2022/03/28 09:20:37;;;;;;;;;;;;;;;11.87;49.49;97732.53;4185718;28;6543;-63
2022/03/28 09:22:41;;;;;;;;;;;;;;;11.85;49.85;97728.44;4185063;28;5708;-62
2022/03/28 09:24:45;;;;;;;;;;;;;;;11.93;49.27;97738.97;4185631;28;5802;-66
2022/03/28 09:26:46;;;;;;;;;;;;;;;11.91;49.77;97728.56;4185059;28;5743;-66
2022/03/28 09:28:58;;;;;;;;;;;;;;;12.05;50.16;97726.94;4176334;28;6541;-65
2022/03/28 09:31:34;;;;;;;;;;;;;;;12.09;49.45;97722.91;4185006;28;5744;-66
2022/03/28 09:33:57;;;;;;;;;;;;;;;12.01;50.00;97719.53;4185426;28;5722;-66
2022/03/28 09:35:59;;;;;;;;;;;;;;;11.81;50.00;97713.91;4184720;28;5718;-66
2022/03/28 09:38:05;;;;;;;;;;;;;;;11.88;50.19;97709.50;4185089;28;6520;-64
2022/03/28 09:40:42;;;;;;;;;;;;;;;12.09;49.06;97711.47;4182488;28;5797;-66
2022/03/28 09:42:48;;;;;;;;;;;;;;;12.08;49.43;97705.38;4179123;28;5723;-66
2022/03/28 09:44:51;;;;;;;;;;;;;;;12.11;47.15;97702.34;4180847;28;6519;-66
2022/03/28 09:47:04;;;;;;;;;;;;;;;11.94;47.38;97696.38;4180930;28;5767;-66
2022/03/28 09:49:23;;;;;;;;;;;;;;;12.10;46.59;97687.44;4184511;28;5976;-66
2022/03/28 09:51:31;;;;;;;;;;;;;;;12.28;47.06;97688.94;4184958;28;5715;-66
2022/03/28 09:53:38;;;;;;;;;;;;;;;12.20;45.73;97677.41;4183305;28;5939;-66
2022/03/28 09:55:48;;;;;;;;;;;;;;;12.33;44.75;97678.59;4180140;28;5723;-66
2022/03/28 09:57:56;;;;;;;;;;;;;;;12.47;45.30;97677.81;4171507;28;5833;-66
2022/03/28 10:00:12;;;;;;;;;;;;;;;12.52;44.60;97676.22;4177544;28;5719;-66
2022/03/28 10:02:23;;;;;;;;;;;;;;;12.52;43.30;97675.41;4184785;28;5084;-66
2022/03/28 10:04:28;;;;;;;;;;;;;;;12.65;45.20;97670.28;4176389;28;5729;-66
2022/03/28 10:06:32;;;;;;;;;;;;;;;12.72;43.00;97676.50;4180576;28;5104;-66
2022/03/28 10:08:36;;;;;;;;;;;;;;;12.67;41.17;97672.72;4184166;28;5825;-66
2022/03/28 10:10:38;;;;;;;;;;;;;;;12.57;39.28;97670.38;4183648;28;5747;-67
2022/03/28 10:12:41;;;;;;;;;;;;;;;12.52;42.83;97672.75;4185182;28;6499;-66
2022/03/28 10:14:44;;;;;;;;;;;;;;;12.51;42.92;97673.75;4182956;28;6273;-68
2022/03/28 10:16:47;;;;;;;;;;;;;;;12.54;44.33;97668.91;4184680;28;5743;-67
2022/03/28 10:18:50;;;;;;;;;;;;;;;12.52;40.96;97664.78;4183710;28;5828;-67
2022/03/28 10:20:54;;;;;;;;;;;;;;;12.71;42.01;97666.91;4184626;28;5716;-67
2022/03/28 10:22:56;;;;;;;;;;;;;;;12.79;42.19;97663.28;4184360;28;5123;-67
2022/03/28 10:25:08;;;;;;;;;;;;;;;12.78;40.54;97651.84;4179313;28;5095;-67
2022/03/28 10:27:12;;;;;;;;;;;;;;;12.88;39.09;97654.22;4169195;28;6377;-67
2022/03/28 10:29:21;;;;;;;;;;;;;;;12.96;38.86;97642.69;4183730;28;5814;-67
2022/03/28 10:31:22;;;;;;;;;;;;;;;12.99;37.30;97643.13;4177914;28;5817;-67
2022/03/28 10:33:51;;;;;;;;;;;;;;;13.11;38.31;97636.31;4183222;28;5825;-67
2022/03/28 10:36:05;;;;;;;;;;;;;;;13.21;38.08;97629.91;4177588;28;5726;-67
2022/03/28 10:38:14;;;;;;;;;;;;;;;13.12;37.62;97629.16;4194655;28;5758;-67
2022/03/28 10:40:35;;;;;;;;;;;;;;;13.17;36.87;97621.47;4180143;28;5952;-66
2022/03/28 10:42:39;;;;;;;;;;;;;;;13.23;37.57;97620.72;4182863;28;5886;-67
2022/03/28 10:44:45;;;;;;;;;;;;;;;13.32;37.45;97616.94;4182440;28;5088;-66
2022/03/28 10:47:04;;;;;;;;;;;;;;;13.43;35.90;97614.78;4182495;28;5775;-66
2022/03/28 10:49:07;;;;;;;;;;;;;;;13.57;37.47;97611.22;4183467;28;5770;-67
2022/03/28 10:51:24;;;;;;;;;;;;;;;13.42;34.88;97608.66;4184243;28;5699;-67
2022/03/28 10:53:39;;;;;;;;;;;;;;;13.39;33.79;97601.91;4184324;28;5723;-66
2022/03/28 10:55:53;;;;;;;;;;;;;;;13.49;34.46;97603.41;4184323;28;5753;-67
2022/03/28 10:58:08;;;;;;;;;;;;;;;13.47;31.91;97605.41;4183901;28;5805;-67
2022/03/28 11:00:12;;;;;;;;;;;;;;;13.23;31.93;97596.81;4182541;28;5703;-66
2022/03/28 11:02:30;;;;;;;;;;;;;;;13.26;35.35;97607.09;4182788;28;5815;-66
2022/03/28 11:04:46;;;;;;;;;;;;;;;13.51;36.90;97596.06;4185331;28;5711;-67
2022/03/28 11:06:59;;;;;;;;;;;;;;;13.48;37.67;97601.75;4182022;28;5718;-66
2022/03/28 11:09:02;;;;;;;;;;;;;;;13.53;37.77;97594.03;4178434;28;5739;-65
2022/03/28 11:11:24;;;;;;;;;;;;;;;13.56;37.99;97591.81;4175723;28;5884;-65
2022/03/28 11:13:32;;;;;;;;;;;;;;;13.49;40.63;97595.44;4183994;28;5778;-65
2022/03/28 11:15:37;;;;;;;;;;;;;;;13.47;40.66;97581.50;4183108;28;6277;-65
2022/03/28 11:17:55;;;;;;;;;;;;;;;13.55;40.31;97576.06;4183799;28;5813;-65
2022/03/28 11:20:09;;;;;;;;;;;;;;;13.63;40.59;97578.59;4184119;28;5762;-66
2022/03/28 11:22:11;;;;;;;;;;;;;;;13.66;39.48;97583.50;4183825;28;5735;-65
2022/03/28 11:24:12;;;;;;;;;;;;;;;13.78;40.41;97576.63;4183624;28;5829;-65
2022/03/28 11:26:22;;;;;;;;;;;;;;;13.64;38.35;97581.03;4183803;28;6813;-65
2022/03/28 11:28:26;;;;;;;;;;;;;;;13.82;39.73;97574.44;4182326;28;5714;-65
2022/03/28 11:30:28;;;;;;;;;;;;;;;13.86;40.90;97565.88;4183360;28;5798;-65
2022/03/28 11:32:32;;;;;;;;;;;;;;;13.94;38.87;97564.91;4183588;28;5747;-65
2022/03/28 11:34:34;;;;;;;;;;;;;;;14.05;36.41;97563.53;4183616;28;5814;-65
2022/03/28 11:36:39;;;;;;;;;;;;;;;14.09;36.66;97554.97;4182542;28;5726;-66
2022/03/28 11:38:56;;;;;;;;;;;;;;;14.20;37.60;97558.91;4180859;28;5714;-65
2022/03/28 11:40:59;;;;;;;;;;;;;;;14.24;36.92;97546.84;4187946;28;5789;-65
2022/03/28 11:43:01;;;;;;;;;;;;;;;14.26;34.20;97550.13;4182353;28;5911;-65
2022/03/28 11:45:10;;;;;;;;;;;;;;;14.20;33.77;97532.31;4177496;28;7775;-65
2022/03/28 11:47:17;;;;;;;;;;;;;;;14.26;34.38;97532.31;4181335;28;5916;-64
2022/03/28 11:49:18;;;;;;;;;;;;;;;14.32;34.26;97533.38;4177504;28;5736;-64
2022/03/28 11:51:21;;;;;;;;;;;;;;;14.32;33.67;97525.41;4175863;28;5724;-64
2022/03/28 11:53:23;;;;;;;;;;;;;;;14.48;34.58;97518.94;4183474;28;5731;-64
2022/03/28 11:55:29;;;;;;;;;;;;;;;14.45;33.83;97525.47;4183523;28;5723;-65
2022/03/28 11:59:54;;;;;;;;;;;;;;;14.49;32.66;97510.75;4182777;28;5798;-65
2022/03/28 12:01:57;;;;;;;;;;;;;;;14.57;32.60;97507.09;4182100;28;5724;-65
2022/03/28 12:04:02;;;;;;;;;;;;;;;14.56;32.40;97506.28;4185845;28;5707;-65
2022/03/28 12:06:06;;;;;;;;;;;;;;;14.61;32.74;97496.84;4177738;28;5710;-65
2022/03/28 12:08:18;;;;;;;;;;;;;;;14.65;32.19;97492.78;4181929;28;5799;-65
2022/03/28 12:10:32;;;;;;;;;;;;;;;14.68;32.80;97487.06;4193928;28;5785;-64
2022/03/28 12:12:34;;;;;;;;;;;;;;;14.72;32.08;97477.63;4185635;28;5851;-65
2022/03/28 12:14:35;;;;;;;;;;;;;;;14.77;32.63;97480.53;4182581;28;5795;-65
2022/03/28 12:16:45;;;;;;;;;;;;;;;14.80;32.75;97475.59;4188697;28;5795;-65
2022/03/28 12:18:48;;;;;;;;;;;;;;;14.90;32.79;97469.06;4187332;28;5863;-65
2022/03/28 12:20:52;;;;;;;;;;;;;;;14.88;31.98;97463.94;4202004;28;5742;-65
2022/03/28 12:22:54;;;;;;;;;;;;;;;14.92;32.41;97462.50;4199135;28;5800;-65
2022/03/28 12:24:57;;;;;;;;;;;;;;;14.83;32.13;97458.41;4184966;28;5127;-65
2022/03/28 12:27:00;;;;;;;;;;;;;;;14.91;31.55;97460.88;4198602;28;5690;-65
2022/03/28 12:29:03;;;;;;;;;;;;;;;14.89;31.95;97452.28;4193186;28;5719;-64
2022/03/28 12:31:08;;;;;;;;;;;;;;;14.93;31.94;97453.50;4201289;28;5817;-65
2022/03/28 12:33:19;;;;;;;;;;;;;;;14.92;31.20;97448.38;4201879;28;5701;-66
2022/03/28 12:35:21;;;;;;;;;;;;;;;14.84;31.54;97444.09;4200333;28;5705;-64
2022/03/28 12:37:27;;;;;;;;;;;;;;;14.87;30.72;97443.69;4194579;28;5797;-64
2022/03/28 12:39:28;;;;;;;;;;;;;;;14.86;31.31;97442.03;4189302;28;5717;-64
2022/03/28 12:41:31;;;;;;;;;;;;;;;14.92;30.60;97437.72;4193760;28;5714;-65
2022/03/28 12:43:33;;;;;;;;;;;;;;;14.95;31.19;97437.31;4190130;28;5824;-65
2022/03/28 12:45:38;;;;;;;;;;;;;;;15.07;31.58;97438.38;4193876;28;6439;-64
2022/03/28 12:47:40;;;;;;;;;;;;;;;15.17;32.33;97428.09;4192123;28;5697;-66
2022/03/28 12:49:43;;;;;;;;;;;;;;;15.19;32.03;97422.56;4186276;28;5081;-66
2022/03/28 12:51:48;;;;;;;;;;;;;;;15.29;32.26;97414.94;4185857;28;6393;-66
2022/03/28 12:53:54;;;;;;;;;;;;;;;15.33;32.12;97413.53;4185959;28;5735;-66
2022/03/28 12:56:16;;;;;;;;;;;;;;;15.43;32.56;97395.28;4193091;28;5752;-66
2022/03/28 12:58:18;;;;;;;;;;;;;;;15.39;31.74;97394.84;4195759;28;5892;-66
2022/03/28 13:00:24;;;;;;;;;;;;;;;15.33;31.47;97393.03;4185415;28;5818;-66
2022/03/28 13:02:26;;;;;;;;;;;;;;;15.31;31.93;97388.94;4188611;28;5834;-66
2022/03/28 13:04:28;;;;;;;;;;;;;;;15.38;31.92;97387.06;4193257;28;5856;-66
2022/03/28 13:06:33;;;;;;;;;;;;;;;15.44;31.94;97384.41;4181452;28;5711;-68
2022/03/28 13:08:37;;;;;;;;;;;;;;;15.36;30.29;97381.13;4181683;28;5802;-66
2022/03/28 13:10:41;;;;;;;;;;;;;;;15.45;31.36;97369.22;4183676;28;5803;-66
2022/03/28 13:12:44;;;;;;;;;;;;;;;15.52;31.53;97367.38;4185540;28;7177;-67
2022/03/28 13:14:52;;;;;;;;;;;;;;;15.65;31.19;97364.69;4185192;28;5739;-67
2022/03/28 13:17:07;;;;;;;;;;;;;;;15.64;29.62;97365.72;4185381;28;5881;-67
2022/03/28 13:19:10;;;;;;;;;;;;;;;15.64;29.54;97365.72;4182074;28;5722;-67
2022/03/28 13:21:14;;;;;;;;;;;;;;;15.66;30.43;97358.31;4185253;28;5747;-67
2022/03/28 13:23:21;;;;;;;;;;;;;;;15.71;30.71;97355.84;4185182;28;5711;-67
2022/03/28 13:25:23;;;;;;;;;;;;;;;15.75;30.95;97350.09;4190274;28;5808;-67
2022/03/28 13:29:50;;;;;;;;;;;;;;;15.80;32.23;97352.94;4191310;28;5694;-67
2022/03/28 13:31:54;;;;;;;;;;;;;;;15.80;31.09;97350.28;4200608;28;5806;-67
2022/03/28 13:33:56;;;;;;;;;;;;;;;15.80;30.83;97343.09;4200990;28;5718;-66
2022/03/28 13:35:59;;;;;;;;;;;;;;;15.84;29.28;97343.47;4200628;28;5900;-65
2022/03/28 13:38:06;;;;;;;;;;;;;;;15.85;30.30;97345.09;4192714;28;5723;-66
2022/03/28 13:40:08;;;;;;;;;;;;;;;15.81;31.75;97338.56;4185352;28;5885;-67
2022/03/28 13:42:09;;;;;;;;;;;;;;;15.84;29.61;97330.13;4185194;28;5799;-66
2022/03/28 13:44:11;;;;;;;;;;;;;;;15.78;29.64;97336.34;4166944;28;5819;-66
2022/03/28 13:46:17;;;;;;;;;;;;;;;15.79;29.25;97320.13;4183299;28;5719;-66
2022/03/28 13:48:22;;;;;;;;;;;;;;;15.81;30.09;97323.41;4185108;28;5715;-66
2022/03/28 13:50:24;;;;;;;;;;;;;;;15.91;30.59;97318.41;4185080;28;5781;-66
2022/03/28 13:52:46;;;;;;;;;;;;;;;15.96;30.51;97312.44;4185095;28;6787;-66
2022/03/28 13:54:47;;;;;;;;;;;;;;;15.97;29.74;97300.75;4184643;28;7767;-65
2022/03/28 13:56:50;;;;;;;;;;;;;;;16.05;29.43;97294.34;4179334;28;5818;-65
2022/03/28 13:58:53;;;;;;;;;;;;;;;16.06;28.66;97291.44;4199919;28;6517;-65
2022/03/28 14:00:55;;;;;;;;;;;;;;;16.23;26.83;97287.22;4200012;28;5812;-65
2022/03/28 14:02:58;;;;;;;;;;;;;;;16.23;27.46;97284.56;4199910;28;5728;-66
2022/03/28 14:05:04;;;;;;;;;;;;;;;16.25;27.66;97282.50;4194727;28;5869;-66
2022/03/28 14:07:06;;;;;;;;;;;;;;;16.30;27.20;97274.63;4188541;28;5722;-65
2022/03/28 14:09:09;;;;;;;;;;;;;;;16.38;28.18;97272.75;4184048;28;5731;-65
2022/03/28 14:11:11;;;;;;;;;;;;;;;16.40;27.96;97262.66;4184413;28;5723;-64
2022/03/28 14:13:12;;;;;;;;;;;;;;;16.39;28.36;97258.38;4184207;28;5859;-64
2022/03/28 14:15:14;;;;;;;;;;;;;;;16.42;28.40;97257.94;4189056;28;5800;-65
2022/03/28 14:17:16;;;;;;;;;;;;;;;16.45;28.72;97260.19;4199800;28;5698;-64
2022/03/28 14:19:18;;;;;;;;;;;;;;;16.47;28.45;97258.09;4196707;28;5689;-64
2022/03/28 14:21:20;;;;;;;;;;;;;;;16.49;28.45;97256.84;4197395;28;5753;-64
2022/03/28 14:23:23;;;;;;;;;;;;;;;16.51;28.38;97252.09;4199246;28;5716;-64
2022/03/28 14:25:26;;;;;;;;;;;;;;;16.60;28.83;97255.31;4197927;28;5876;-64
2022/03/28 14:27:29;;;;;;;;;;;;;;;16.62;29.21;97245.22;4184505;28;5704;-64
2022/03/28 14:29:32;;;;;;;;;;;;;;;16.58;28.74;97244.03;4199447;28;5705;-64
2022/03/28 14:31:34;;;;;;;;;;;;;;;16.64;29.81;97245.81;4199832;28;5761;-64
2022/03/28 14:33:36;;;;;;;;;;;;;;;16.68;29.80;97228.38;4191980;28;6477;-64
2022/03/28 14:35:38;;;;;;;;;;;;;;;16.71;30.10;97227.91;4199595;28;5698;-64
2022/03/28 14:37:40;;;;;;;;;;;;;;;16.74;30.16;97226.66;4192020;28;5260;-64
2022/03/28 14:39:43;;;;;;;;;;;;;;;16.71;29.95;97222.56;4184094;28;7831;-64
2022/03/28 14:41:46;;;;;;;;;;;;;;;16.62;28.80;97220.38;4183221;28;5806;-64
2022/03/28 14:43:48;;;;;;;;;;;;;;;16.61;29.28;97216.91;4180889;28;5970;-64
2022/03/28 14:48:10;;;;;;;;;;;;;;;16.69;30.60;97208.63;4189399;28;5824;-65
2022/03/28 14:50:12;;;;;;;;;;;;;;;16.67;30.90;97208.03;4190816;28;6500;-65
2022/03/28 14:52:15;;;;;;;;;;;;;;;16.67;31.21;97205.34;4186700;28;5826;-66
2022/03/28 14:54:18;;;;;;;;;;;;;;;16.68;31.46;97201.66;4182865;28;5810;-64
2022/03/28 14:56:21;;;;;;;;;;;;;;;16.72;31.33;97197.50;4189112;28;5878;-64
2022/03/28 14:58:28;;;;;;;;;;;;;;;16.74;31.37;97192.75;4187999;28;5820;-65
2022/03/28 15:00:47;;;;;;;;;;;;;;;16.78;30.57;97196.63;4195717;28;5864;-65
2022/03/28 15:02:50;;;;;;;;;;;;;;;16.83;30.12;97198.63;4194212;28;5848;-65
2022/03/28 15:04:52;;;;;;;;;;;;;;;16.88;31.17;97191.59;4185269;28;5206;-65
2022/03/28 15:06:54;;;;;;;;;;;;;;;16.95;30.52;97186.16;4182639;28;7949;-65
2022/03/28 15:08:57;;;;;;;;;;;;;;;16.96;30.84;97187.78;4193968;28;5816;-68
2022/03/28 15:10:59;;;;;;;;;;;;;;;16.98;30.62;97184.88;4188353;28;5829;-66
2022/03/28 15:13:00;;;;;;;;;;;;;;;16.97;30.75;97178.72;4181561;28;5796;-66